createdAt,value
2022-11-26T00:01:02.036Z,96164.31
2022-11-26T00:03:49.464Z,96165.44
2022-11-26T00:06:38.102Z,96162.25
2022-11-26T00:09:25.229Z,96161.41
2022-11-26T00:12:22.198Z,96161.56
2022-11-26T00:15:21.195Z,96161.25
2022-11-26T00:18:07.298Z,96163.63
2022-11-26T00:21:00.148Z,96160.97
2022-11-26T00:23:46.532Z,96165.31
2022-11-26T00:26:32.437Z,96175.78
2022-11-26T00:29:18.693Z,96158.75
2022-11-26T00:32:11.956Z,96158.91
2022-11-26T00:34:58.223Z,96159.84
2022-11-26T00:37:47.379Z,96164.91
2022-11-26T00:40:33.919Z,96162.81
2022-11-26T00:43:20.110Z,96160.44
2022-11-26T00:46:05.926Z,96149.56
2022-11-26T00:48:52.180Z,96167.72
2022-11-26T00:51:38.525Z,96167.72
2022-11-26T00:54:24.592Z,96169.94
2022-11-26T00:57:11.299Z,96161.28
2022-11-26T00:59:57.500Z,96158.22
2022-11-26T01:02:43.398Z,96156.66
2022-11-26T01:05:33.767Z,96176.78
2022-11-26T01:08:30.058Z,96194.78
2022-11-26T01:11:21.210Z,96197.56
2022-11-26T01:14:07.308Z,96191.03
2022-11-26T01:16:55.696Z,96197.56
2022-11-26T01:19:41.496Z,96181.09
2022-11-26T01:22:27.491Z,96185.84
2022-11-26T01:25:13.527Z,96195.19
2022-11-26T01:27:59.466Z,96202.06
2022-11-26T01:30:46.471Z,96191.59
2022-11-26T01:33:32.659Z,96187.78
2022-11-26T01:36:27.734Z,96200.91
2022-11-26T01:39:19.033Z,96190.84
2022-11-26T01:42:35.055Z,96202.59
2022-11-26T01:45:23.030Z,96206.63
2022-11-26T01:48:26.789Z,96194.19
2022-11-26T01:51:13.538Z,96186.22
2022-11-26T01:54:00.284Z,96190.84
2022-11-26T01:56:52.449Z,96187.63
2022-11-26T01:59:41.175Z,96173.53
2022-11-26T02:02:28.960Z,96192.50
2022-11-26T02:05:24.548Z,96201.31
2022-11-26T02:08:12.114Z,96190.28
2022-11-26T02:10:58.431Z,96196.16
2022-11-26T02:13:45.866Z,96196.56
2022-11-26T02:16:46.364Z,96191.41
2022-11-26T02:19:56.650Z,96197.66
2022-11-26T02:22:57.890Z,96194.88
2022-11-26T02:25:58.912Z,96193.06
2022-11-26T02:29:03.195Z,96198.09
2022-11-26T02:32:24.931Z,96214.84
2022-11-26T02:35:18.660Z,96183.53
2022-11-26T02:38:16.104Z,96189.81
2022-11-26T02:41:02.364Z,96197.53
2022-11-26T02:43:48.409Z,96189.69
2022-11-26T02:46:34.581Z,96197.22
2022-11-26T02:49:21.999Z,96191.38
2022-11-26T02:52:08.362Z,96184.13
2022-11-26T02:54:56.001Z,96178.13
2022-11-26T02:57:46.965Z,96184.13
2022-11-26T03:00:34.893Z,96182.44
2022-11-26T03:03:26.165Z,96184.97
2022-11-26T03:06:13.696Z,96190.81
2022-11-26T03:08:59.611Z,96190.56
2022-11-26T03:11:45.744Z,96188.16
2022-11-26T03:14:31.713Z,96184.66
2022-11-26T03:17:18.338Z,96193.19
2022-11-26T03:20:05.486Z,96183.94
2022-11-26T03:22:51.279Z,96192.06
2022-11-26T03:25:37.499Z,96193.72
2022-11-26T03:28:24.422Z,96194.69
2022-11-26T03:31:10.492Z,96207.56
2022-11-26T03:33:56.562Z,96211.75
2022-11-26T03:36:43.131Z,96221.63
2022-11-26T03:39:29.071Z,96210.06
2022-11-26T03:42:14.968Z,96223.75
2022-11-26T03:45:01.215Z,96221.97
2022-11-26T03:47:47.200Z,96223.75
2022-11-26T03:50:33.227Z,96221.97
2022-11-26T03:53:19.179Z,96227.69
2022-11-26T03:56:05.537Z,96248.50
2022-11-26T03:58:51.602Z,96233.53
2022-11-26T04:01:37.642Z,96211.88
2022-11-26T04:04:23.479Z,96238.28
2022-11-26T04:07:09.647Z,96228.78
2022-11-26T04:09:55.333Z,96239.66
2022-11-26T04:12:41.360Z,96237.56
2022-11-26T04:15:27.412Z,96241.06
2022-11-26T04:18:13.281Z,96246.66
2022-11-26T04:20:59.282Z,96241.59
2022-11-26T04:23:45.178Z,96238.13
2022-11-26T04:26:31.195Z,96246.66
2022-11-26T04:29:17.063Z,96244.13
2022-11-26T04:32:04.222Z,96252.66
2022-11-26T04:34:50.275Z,96250.25
2022-11-26T04:37:36.371Z,96249.41
2022-11-26T04:40:22.335Z,96254.47
2022-11-26T04:43:08.463Z,96255.03
2022-11-26T04:45:54.516Z,96243.59
2022-11-26T04:48:40.460Z,96251.41
2022-11-26T04:51:26.538Z,96261.75
2022-11-26T04:54:13.354Z,96256.56
2022-11-26T04:56:59.456Z,96259.09
2022-11-26T04:59:45.660Z,96271.09
2022-11-26T05:02:31.834Z,96270.13
2022-11-26T05:05:17.837Z,96272.91
2022-11-26T05:08:04.267Z,96276.38
2022-11-26T05:10:54.456Z,96276.28
2022-11-26T05:13:40.360Z,96271.81
2022-11-26T05:16:26.493Z,96280.44
2022-11-26T05:19:12.292Z,96276.13
2022-11-26T05:21:58.156Z,96275.56
2022-11-26T05:24:44.132Z,96250.81
2022-11-26T05:27:30.067Z,96272.22
2022-11-26T05:30:16.392Z,96273.03
2022-11-26T05:33:02.515Z,96274.03
2022-11-26T05:35:48.535Z,96283.41
2022-11-26T05:38:34.647Z,96281.84
2022-11-26T05:41:20.755Z,96275.13
2022-11-26T05:44:07.198Z,96283.66
2022-11-26T05:46:52.934Z,96285.31
2022-11-26T05:49:38.800Z,96291.47
2022-11-26T05:52:24.834Z,96287.16
2022-11-26T05:55:10.719Z,96285.22
2022-11-26T05:57:56.587Z,96287.72
2022-11-26T06:00:42.599Z,96305.88
2022-11-26T06:03:28.649Z,96306.72
2022-11-26T06:06:14.761Z,96305.03
2022-11-26T06:09:00.806Z,96292.69
2022-11-26T06:11:49.448Z,96319.97
2022-11-26T06:14:37.214Z,96312.56
2022-11-26T06:17:26.362Z,96325.00
2022-11-26T06:20:13.218Z,96319.94
2022-11-26T06:22:59.118Z,96325.50
2022-11-26T06:25:45.163Z,96335.13
2022-11-26T06:28:31.076Z,96341.41
2022-11-26T06:31:17.105Z,96345.34
2022-11-26T06:34:03.087Z,96338.75
2022-11-26T06:36:48.975Z,96336.84
2022-11-26T06:39:36.265Z,96337.53
2022-11-26T06:42:22.455Z,96346.31
2022-11-26T06:45:08.999Z,96349.69
2022-11-26T06:47:55.507Z,96355.00
2022-11-26T06:50:41.460Z,96365.72
2022-11-26T06:53:27.259Z,96365.84
2022-11-26T06:56:18.735Z,96360.41
2022-11-26T06:59:05.378Z,96367.97
2022-11-26T07:01:51.752Z,96362.56
2022-11-26T07:04:38.138Z,96370.50
2022-11-26T07:07:24.346Z,96366.59
2022-11-26T07:10:10.433Z,96381.41
2022-11-26T07:12:56.610Z,96381.84
2022-11-26T07:15:42.401Z,96378.78
2022-11-26T07:18:28.351Z,96369.56
2022-11-26T07:21:14.408Z,96373.75
2022-11-26T07:24:00.418Z,96367.34
2022-11-26T07:26:46.349Z,96364.44
2022-11-26T07:29:32.639Z,96369.34
2022-11-26T07:32:18.748Z,96355.34
2022-11-26T07:35:05.592Z,96366.53
2022-11-26T07:37:51.420Z,96365.31
2022-11-26T07:40:37.352Z,96363.72
2022-11-26T07:43:23.455Z,96365.28
2022-11-26T07:46:13.941Z,96362.31
2022-11-26T07:48:59.928Z,96362.31
2022-11-26T07:51:45.936Z,96363.84
2022-11-26T07:54:32.312Z,96371.13
2022-11-26T07:57:18.441Z,96353.53
2022-11-26T08:00:05.075Z,96359.28
2022-11-26T08:02:58.064Z,96351.75
2022-11-26T08:05:45.213Z,96359.03
2022-11-26T08:08:31.127Z,96361.69
2022-11-26T08:11:22.557Z,96355.56
2022-11-26T08:14:12.785Z,96359.31
2022-11-26T08:16:59.151Z,96343.69
2022-11-26T08:19:45.594Z,96360.03
2022-11-26T08:22:31.551Z,96361.31
2022-11-26T08:25:17.801Z,96354.19
2022-11-26T08:28:04.095Z,96354.03
2022-11-26T08:30:50.220Z,96349.31
2022-11-26T08:33:36.515Z,96358.25
2022-11-26T08:36:22.945Z,96355.38
2022-11-26T08:39:15.359Z,96357.03
2022-11-26T08:42:01.656Z,96369.50
2022-11-26T08:44:48.145Z,96366.44
2022-11-26T08:47:33.985Z,96364.47
2022-11-26T08:50:20.873Z,96353.28
2022-11-26T08:53:07.089Z,96373.16
2022-11-26T08:56:00.171Z,96377.31
2022-11-26T08:58:49.007Z,96374.56
2022-11-26T09:01:35.471Z,96366.59
2022-11-26T09:04:21.588Z,96377.47
2022-11-26T09:07:08.013Z,96374.97
2022-11-26T09:09:53.772Z,96372.84
2022-11-26T09:12:39.720Z,96367.53
2022-11-26T09:15:25.751Z,96372.56
2022-11-26T09:18:12.135Z,96374.38
2022-11-26T09:21:02.783Z,96377.72
2022-11-26T09:23:49.243Z,96366.13
2022-11-26T09:26:35.542Z,96364.53
2022-11-26T09:29:23.124Z,96359.75
2022-11-26T09:32:24.393Z,96351.19
2022-11-26T09:35:11.965Z,96357.50
2022-11-26T09:37:57.980Z,96352.66
2022-11-26T09:41:16.421Z,96341.31
2022-11-26T09:44:41.663Z,96337.59
2022-11-26T09:47:32.054Z,96337.50
2022-11-26T09:50:26.307Z,96344.44
2022-11-26T09:53:21.634Z,96341.88
2022-11-26T09:56:13.867Z,96324.22
2022-11-26T09:59:03.802Z,96331.31
2022-11-26T10:01:49.958Z,96334.28
2022-11-26T10:04:37.703Z,96330.38
2022-11-26T10:07:52.454Z,96340.97
2022-11-26T10:10:49.393Z,96335.47
2022-11-26T10:13:50.592Z,96336.34
2022-11-26T10:16:56.953Z,96339.44
2022-11-26T10:19:52.010Z,96335.78
2022-11-26T10:22:57.161Z,96312.66
2022-11-26T10:25:50.071Z,96329.91
2022-11-26T10:28:41.087Z,96321.81
2022-11-26T10:31:32.068Z,96321.19
2022-11-26T10:34:39.467Z,96317.72
2022-11-26T10:37:27.416Z,96297.06
2022-11-26T10:40:26.563Z,96313.31
2022-11-26T10:43:21.892Z,96304.00
2022-11-26T10:46:07.716Z,96308.53
2022-11-26T10:48:53.568Z,96295.56
2022-11-26T10:51:39.971Z,96296.56
2022-11-26T10:54:34.854Z,96301.13
2022-11-26T10:57:21.323Z,96302.66
2022-11-26T11:00:15.479Z,96298.00
2022-11-26T11:03:02.580Z,96296.69
2022-11-26T11:05:48.660Z,96294.03
2022-11-26T11:08:34.815Z,96297.53
2022-11-26T11:11:38.761Z,96290.75
2022-11-26T11:14:29.117Z,96296.56
2022-11-26T11:17:25.570Z,96294.41
2022-11-26T11:20:14.789Z,96264.84
2022-11-26T11:23:31.113Z,96289.75
2022-11-26T11:26:40.710Z,96288.09
2022-11-26T11:29:31.467Z,96287.13
2022-11-26T11:32:38.130Z,96273.56
2022-11-26T11:35:27.149Z,96268.06
2022-11-26T11:38:24.944Z,96275.25
2022-11-26T11:41:23.420Z,96267.41
2022-11-26T11:44:20.607Z,96268.72
2022-11-26T11:47:11.100Z,96272.41
2022-11-26T11:50:06.275Z,96285.09
2022-11-26T11:53:10.990Z,96274.25
2022-11-26T11:56:09.252Z,96274.06
2022-11-26T11:59:07.482Z,96277.75
2022-11-26T12:02:20.990Z,96277.06
2022-11-26T12:05:23.140Z,96268.41
2022-11-26T12:08:15.811Z,96273.94
2022-11-26T12:11:22.303Z,96264.88
2022-11-26T12:14:14.808Z,96264.25
2022-11-26T12:17:27.799Z,96271.91
2022-11-26T12:21:07.488Z,96265.22
2022-11-26T12:23:58.617Z,96271.41
2022-11-26T12:27:08.207Z,96248.00
2022-11-26T12:30:08.613Z,96261.03
2022-11-26T12:32:55.827Z,96245.31
2022-11-26T12:35:54.076Z,96257.34
2022-11-26T12:38:46.751Z,96254.66
2022-11-26T12:41:35.091Z,96266.19
2022-11-26T12:44:37.334Z,96262.69
2022-11-26T12:47:37.211Z,96273.06
2022-11-26T12:50:35.079Z,96240.31
2022-11-26T12:53:47.200Z,96264.53
2022-11-26T12:56:38.540Z,96250.47
2022-11-26T12:59:24.653Z,96252.31
2022-11-26T13:02:35.606Z,96265.34
2022-11-26T13:06:00.725Z,96262.03
2022-11-26T13:08:55.666Z,96245.81
2022-11-26T13:11:47.712Z,96263.66
2022-11-26T13:14:56.782Z,96260.00
2022-11-26T13:17:44.810Z,96247.47
2022-11-26T13:20:52.555Z,96239.31
2022-11-26T13:23:51.651Z,96258.19
2022-11-26T13:26:46.075Z,96252.69
2022-11-26T13:29:47.128Z,96265.03
2022-11-26T13:32:42.037Z,96258.03
2022-11-26T13:35:34.274Z,96271.06
2022-11-26T13:38:26.019Z,96271.72
2022-11-26T13:41:33.538Z,96279.94
2022-11-26T13:44:34.825Z,96274.41
2022-11-26T13:47:35.850Z,96279.94
2022-11-26T13:50:29.919Z,96280.44
2022-11-26T13:53:25.078Z,96285.59
2022-11-26T13:56:13.506Z,96289.97
2022-11-26T13:59:02.824Z,96282.59
2022-11-26T14:01:49.202Z,96287.81
2022-11-26T14:04:35.397Z,96301.50
2022-11-26T14:07:21.652Z,96291.47
2022-11-26T14:10:30.735Z,96300.50
2022-11-26T14:13:17.348Z,96300.16
2022-11-26T14:16:07.121Z,96314.69
2022-11-26T14:18:56.666Z,96315.19
2022-11-26T14:21:58.222Z,96314.03
2022-11-26T14:24:50.089Z,96297.31
2022-11-26T14:27:50.092Z,96306.69
2022-11-26T14:30:36.307Z,96318.03
2022-11-26T14:33:27.474Z,96320.56
2022-11-26T14:36:25.071Z,96314.19
2022-11-26T14:39:16.833Z,96329.91
2022-11-26T14:42:06.285Z,96333.56
2022-11-26T14:45:15.620Z,96322.50
2022-11-26T14:48:02.378Z,96332.91
2022-11-26T14:50:48.632Z,96334.75
2022-11-26T14:53:34.981Z,96342.09
2022-11-26T14:56:23.060Z,96331.56
2022-11-26T14:59:14.313Z,96333.84
2022-11-26T15:02:00.178Z,96325.31
2022-11-26T15:04:46.151Z,96341.88
2022-11-26T15:07:32.182Z,96349.06
2022-11-26T15:10:20.866Z,96340.19
2022-11-26T15:13:13.073Z,96350.38
2022-11-26T15:16:04.304Z,96356.56
2022-11-26T15:18:52.611Z,96338.19
2022-11-26T15:21:40.743Z,96357.22
2022-11-26T15:24:26.932Z,96353.53
2022-11-26T15:27:36.623Z,96363.38
2022-11-26T15:30:24.442Z,96359.22
2022-11-26T15:33:13.797Z,96379.44
2022-11-26T15:36:00.298Z,96379.94
2022-11-26T15:39:06.447Z,96371.22
2022-11-26T15:41:52.882Z,96373.41
2022-11-26T15:44:42.534Z,96371.75
2022-11-26T15:47:29.229Z,96388.25
2022-11-26T15:50:31.598Z,96370.88
2022-11-26T15:53:20.111Z,96370.03
2022-11-26T15:56:06.715Z,96385.59
2022-11-26T15:58:55.894Z,96388.25
2022-11-26T16:01:44.951Z,96377.72
2022-11-26T16:04:38.171Z,96376.78
2022-11-26T16:07:27.681Z,96387.03
2022-11-26T16:10:16.587Z,96383.53
2022-11-26T16:13:11.755Z,96389.19
2022-11-26T16:16:03.763Z,96385.16
2022-11-26T16:18:59.768Z,96393.50
2022-11-26T16:21:51.231Z,96382.59
2022-11-26T16:24:43.711Z,96389.31
2022-11-26T16:27:31.642Z,96393.66
2022-11-26T16:30:17.979Z,96393.28
2022-11-26T16:33:04.537Z,96402.97
2022-11-26T16:35:50.874Z,96414.00
2022-11-26T16:38:36.733Z,96411.84
2022-11-26T16:41:23.437Z,96415.97
2022-11-26T16:44:09.805Z,96405.25
2022-11-26T16:46:55.888Z,96424.81
2022-11-26T16:49:41.999Z,96423.47
2022-11-26T16:52:28.172Z,96421.94
2022-11-26T16:55:16.078Z,96432.81
2022-11-26T16:58:02.404Z,96429.44
2022-11-26T17:00:51.186Z,96443.16
2022-11-26T17:03:37.175Z,96434.78
2022-11-26T17:06:24.870Z,96443.63
2022-11-26T17:09:20.632Z,96450.28
2022-11-26T17:12:17.807Z,96435.06
2022-11-26T17:15:07.659Z,96440.56
2022-11-26T17:18:06.868Z,96450.06
2022-11-26T17:20:54.137Z,96454.28
2022-11-26T17:23:42.802Z,96428.66
2022-11-26T17:26:29.067Z,96444.56
2022-11-26T17:29:15.159Z,96446.19
2022-11-26T17:32:01.206Z,96453.75
2022-11-26T17:34:48.147Z,96454.03
2022-11-26T17:37:34.684Z,96465.78
2022-11-26T17:40:22.045Z,96466.72
2022-11-26T17:43:07.885Z,96471.75
2022-11-26T17:45:54.211Z,96471.53
2022-11-26T17:48:40.055Z,96489.06
2022-11-26T17:51:25.872Z,96492.59
2022-11-26T17:54:11.777Z,96493.19
2022-11-26T17:56:57.726Z,96481.66
2022-11-26T17:59:44.265Z,96482.84
2022-11-26T18:02:30.553Z,96488.72
2022-11-26T18:05:16.684Z,96470.78
2022-11-26T18:08:02.940Z,96469.56
2022-11-26T18:10:49.027Z,96483.47
2022-11-26T18:13:34.999Z,96491.31
2022-11-26T18:16:21.540Z,96479.94
2022-11-26T18:19:09.030Z,96472.31
2022-11-26T18:21:55.147Z,96466.44
2022-11-26T18:24:41.180Z,96484.59
2022-11-26T18:27:28.796Z,96472.09
2022-11-26T18:30:15.539Z,96485.13
2022-11-26T18:33:01.883Z,96481.75
2022-11-26T18:35:50.833Z,96475.06
2022-11-26T18:38:38.094Z,96478.06
2022-11-26T18:41:24.317Z,96477.34
2022-11-26T18:44:11.083Z,96480.72
2022-11-26T18:46:57.156Z,96492.22
2022-11-26T18:49:46.297Z,96484.38
2022-11-26T18:52:33.905Z,96491.06
2022-11-26T18:55:19.817Z,96485.34
2022-11-26T18:58:08.154Z,96481.72
2022-11-26T19:00:58.577Z,96490.38
2022-11-26T19:03:44.552Z,96493.22
2022-11-26T19:06:31.883Z,96496.88
2022-11-26T19:09:19.839Z,96493.53
2022-11-26T19:12:06.275Z,96495.53
2022-11-26T19:14:52.047Z,96491.47
2022-11-26T19:17:38.092Z,96479.06
2022-11-26T19:20:24.349Z,96486.28
2022-11-26T19:23:10.275Z,96486.13
2022-11-26T19:25:56.491Z,96494.81
2022-11-26T19:28:42.950Z,96478.34
2022-11-26T19:31:30.618Z,96487.72
2022-11-26T19:34:17.307Z,96486.88
2022-11-26T19:37:03.443Z,96498.78
2022-11-26T19:39:49.267Z,96500.78
2022-11-26T19:42:35.348Z,96476.47
2022-11-26T19:45:21.236Z,96496.88
2022-11-26T19:48:07.053Z,96502.22
2022-11-26T19:50:56.470Z,96512.44
2022-11-26T19:53:42.939Z,96495.81
2022-11-26T19:56:30.943Z,96515.09
2022-11-26T19:59:17.162Z,96507.84
2022-11-26T20:02:03.579Z,96510.97
2022-11-26T20:04:49.503Z,96515.69
2022-11-26T20:07:35.947Z,96496.25
2022-11-26T20:10:21.969Z,96496.97
2022-11-26T20:13:08.593Z,96499.31
2022-11-26T20:15:55.250Z,96508.69
2022-11-26T20:18:41.405Z,96513.34
2022-11-26T20:21:29.196Z,96520.34
2022-11-26T20:24:17.090Z,96528.19
2022-11-26T20:27:03.067Z,96528.66
2022-11-26T20:29:49.443Z,96534.69
2022-11-26T20:32:36.877Z,96517.59
2022-11-26T20:35:23.330Z,96526.81
2022-11-26T20:38:09.941Z,96522.66
2022-11-26T20:40:56.311Z,96511.44
2022-11-26T20:43:42.714Z,96533.53
2022-11-26T20:46:28.993Z,96516.31
2022-11-26T20:49:16.194Z,96514.63
2022-11-26T20:52:02.329Z,96526.69
2022-11-26T20:54:52.262Z,96521.66
2022-11-26T20:57:39.651Z,96527.28
2022-11-26T21:00:27.682Z,96524.78
2022-11-26T21:03:14.427Z,96521.44
2022-11-26T21:06:04.031Z,96506.31
2022-11-26T21:08:50.206Z,96519.75
2022-11-26T21:11:37.533Z,96522.81
2022-11-26T21:14:23.550Z,96526.59
2022-11-26T21:17:09.937Z,96526.59
2022-11-26T21:19:56.356Z,96522.09
2022-11-26T21:22:42.690Z,96525.59
2022-11-26T21:25:28.845Z,96518.75
2022-11-26T21:28:15.117Z,96533.75
2022-11-26T21:31:21.792Z,96534.22
2022-11-26T21:34:11.182Z,96541.22
2022-11-26T21:36:56.988Z,96538.56
2022-11-26T21:39:43.003Z,96527.34
2022-11-26T21:42:33.134Z,96533.53
2022-11-26T21:45:19.103Z,96537.50
2022-11-26T21:48:05.536Z,96537.50
2022-11-26T21:50:51.731Z,96547.16
2022-11-26T21:53:37.853Z,96537.19
2022-11-26T21:56:26.386Z,96532.84
2022-11-26T21:59:12.475Z,96533.28
2022-11-26T22:01:58.509Z,96542.28
2022-11-26T22:04:44.369Z,96541.44
2022-11-26T22:07:30.712Z,96537.94
2022-11-26T22:10:17.213Z,96536.41
2022-11-26T22:13:02.968Z,96526.19
2022-11-26T22:15:49.100Z,96535.28
2022-11-26T22:18:37.203Z,96535.72
2022-11-26T22:21:25.904Z,96543.56
2022-11-26T22:24:14.840Z,96532.78
2022-11-26T22:27:00.772Z,96542.34
2022-11-26T22:29:46.810Z,96516.56
2022-11-26T22:32:32.749Z,96545.28
2022-11-26T22:35:18.681Z,96546.13
2022-11-26T22:38:04.657Z,96550.50
2022-11-26T22:40:50.672Z,96545.28
2022-11-26T22:43:36.981Z,96538.44
2022-11-26T22:46:23.746Z,96542.50
2022-11-26T22:49:15.629Z,96541.25
2022-11-26T22:52:01.905Z,96540.84
2022-11-26T22:54:48.209Z,96542.56
2022-11-26T22:57:34.355Z,96540.00
2022-11-26T23:00:47.008Z,96552.50
2022-11-26T23:03:35.401Z,96540.00
2022-11-26T23:06:23.643Z,96547.34
2022-11-26T23:09:11.121Z,96543.84
2022-11-26T23:11:57.369Z,96533.41
2022-11-26T23:14:43.452Z,96546.06
2022-11-26T23:17:29.364Z,96545.91
2022-11-26T23:20:15.628Z,96545.53
2022-11-26T23:23:01.407Z,96538.81
2022-11-26T23:25:47.474Z,96546.63
2022-11-26T23:28:35.180Z,96552.53
2022-11-26T23:31:26.671Z,96543.28
2022-11-26T23:34:13.093Z,96545.13
2022-11-26T23:36:59.387Z,96557.75
2022-11-26T23:39:45.632Z,96549.47
2022-11-26T23:42:31.575Z,96545.56
2022-11-26T23:45:17.675Z,96545.25
2022-11-26T23:48:03.692Z,96535.50
2022-11-26T23:50:49.588Z,96545.00
2022-11-26T23:53:37.349Z,96561.44
2022-11-26T23:56:29.821Z,96550.38
2022-11-26T23:59:15.755Z,96541.41
